createdAt,value
2022-08-19T00:00:23.497Z,58.21
2022-08-19T00:03:26.432Z,58.67
2022-08-19T00:06:29.976Z,58.53
2022-08-19T00:09:33.000Z,58.63
2022-08-19T00:12:36.596Z,58.78
2022-08-19T00:15:46.865Z,58.71
2022-08-19T00:18:49.816Z,58.80
2022-08-19T00:21:53.575Z,58.82
2022-08-19T00:24:56.273Z,58.37
2022-08-19T00:28:00.467Z,58.93
2022-08-19T00:31:07.048Z,59.17
2022-08-19T00:34:11.513Z,59.14
2022-08-19T00:37:14.278Z,59.19
2022-08-19T00:40:19.287Z,59.37
2022-08-19T00:43:25.003Z,59.22
2022-08-19T00:46:28.979Z,58.86
2022-08-19T00:49:43.048Z,59.49
2022-08-19T00:52:50.057Z,59.82
2022-08-19T00:55:56.094Z,59.58
2022-08-19T00:59:02.855Z,60.32
2022-08-19T01:02:06.100Z,60.68
2022-08-19T01:05:16.596Z,60.33
2022-08-19T01:08:21.097Z,60.33
2022-08-19T01:11:24.528Z,60.14
2022-08-19T01:14:27.259Z,60.00
2022-08-19T01:17:30.285Z,59.97
2022-08-19T01:20:34.096Z,60.05
2022-08-19T01:23:46.396Z,59.97
2022-08-19T01:26:49.475Z,60.20
2022-08-19T01:29:52.533Z,60.05
2022-08-19T01:32:56.058Z,60.21
2022-08-19T01:36:28.013Z,60.09
2022-08-19T01:39:30.697Z,59.77
2022-08-19T01:42:33.651Z,59.84
2022-08-19T01:45:41.144Z,60.11
2022-08-19T01:48:45.203Z,60.43
2022-08-19T01:51:49.142Z,60.36
2022-08-19T01:54:52.097Z,60.92
2022-08-19T01:57:58.150Z,60.84
2022-08-19T02:01:01.091Z,60.41
2022-08-19T02:04:04.138Z,60.53
2022-08-19T02:07:09.122Z,60.53
2022-08-19T02:10:19.551Z,60.69
2022-08-19T02:13:22.775Z,61.01
2022-08-19T02:16:29.855Z,61.38
2022-08-19T02:19:33.649Z,61.16
2022-08-19T02:22:36.864Z,61.02
2022-08-19T02:25:39.761Z,61.16
2022-08-19T02:28:43.600Z,61.75
2022-08-19T02:31:46.557Z,61.66
2022-08-19T02:34:50.094Z,61.68
2022-08-19T02:38:11.353Z,61.60
2022-08-19T02:41:27.048Z,61.86
2022-08-19T02:44:32.032Z,62.05
2022-08-19T02:47:35.351Z,61.55
2022-08-19T02:50:41.434Z,62.22
2022-08-19T02:53:57.632Z,62.25
2022-08-19T02:57:00.275Z,62.44
2022-08-19T03:00:06.983Z,62.19
2022-08-19T03:03:09.642Z,61.68
2022-08-19T03:06:16.359Z,62.06
2022-08-19T03:09:20.900Z,62.43
2022-08-19T03:12:23.869Z,62.82
2022-08-19T03:15:27.144Z,62.78
2022-08-19T03:18:30.168Z,62.97
2022-08-19T03:21:34.711Z,63.52
2022-08-19T03:24:38.805Z,63.61
2022-08-19T03:27:42.220Z,63.35
2022-08-19T03:31:00.152Z,63.37
2022-08-19T03:34:04.383Z,63.32
2022-08-19T03:37:17.709Z,63.43
2022-08-19T03:40:20.712Z,63.49
2022-08-19T03:43:23.728Z,63.55
2022-08-19T03:46:32.714Z,63.96
2022-08-19T03:49:36.845Z,63.66
2022-08-19T03:52:40.460Z,64.04
2022-08-19T03:55:48.445Z,63.36
2022-08-19T03:58:51.115Z,63.22
2022-08-19T04:01:57.196Z,63.65
2022-08-19T04:05:00.136Z,63.74
2022-08-19T04:08:03.008Z,63.80
2022-08-19T04:11:18.405Z,63.63
2022-08-19T04:14:25.221Z,63.61
2022-08-19T04:17:28.187Z,63.87
2022-08-19T04:20:31.174Z,63.72
2022-08-19T04:23:36.975Z,63.67
2022-08-19T04:26:48.775Z,63.56
2022-08-19T04:29:51.767Z,63.06
2022-08-19T04:32:54.606Z,62.86
2022-08-19T04:35:59.283Z,62.46
2022-08-19T04:39:06.687Z,62.42
2022-08-19T04:42:30.699Z,63.05
2022-08-19T04:45:39.669Z,62.95
2022-08-19T04:48:49.399Z,61.65
2022-08-19T04:51:55.275Z,61.93
2022-08-19T04:54:59.062Z,61.03
2022-08-19T04:58:03.370Z,60.97
2022-08-19T05:01:06.552Z,61.77
2022-08-19T05:04:09.417Z,61.92
2022-08-19T05:07:12.585Z,62.15
2022-08-19T05:10:15.224Z,61.56
2022-08-19T05:13:20.270Z,61.40
2022-08-19T05:16:24.939Z,60.73
2022-08-19T05:19:46.619Z,59.72
2022-08-19T05:22:49.351Z,58.14
2022-08-19T05:25:53.320Z,58.03
2022-08-19T05:28:56.485Z,57.52
2022-08-19T05:32:00.506Z,57.48
2022-08-19T05:35:05.255Z,56.81
2022-08-19T05:38:09.248Z,56.59
2022-08-19T05:41:13.955Z,56.03
2022-08-19T05:44:18.102Z,55.50
2022-08-19T05:47:21.169Z,55.52
2022-08-19T05:50:24.175Z,55.44
2022-08-19T05:53:26.860Z,55.20
2022-08-19T05:56:31.711Z,54.97
2022-08-19T05:59:36.410Z,54.11
2022-08-19T06:02:42.708Z,53.62
2022-08-19T06:05:51.695Z,53.71
2022-08-19T06:08:54.914Z,53.27
2022-08-19T06:12:00.868Z,52.71
2022-08-19T06:15:08.128Z,52.41
2022-08-19T06:18:11.057Z,51.91
2022-08-19T06:21:13.688Z,51.98
2022-08-19T06:24:19.535Z,51.53
2022-08-19T06:27:22.830Z,51.65
2022-08-19T06:30:26.199Z,51.30
2022-08-19T06:33:29.410Z,50.90
2022-08-19T06:36:39.740Z,50.77
2022-08-19T06:39:44.636Z,49.88
2022-08-19T06:42:54.689Z,50.08
2022-08-19T06:45:59.952Z,49.54
2022-08-19T06:49:05.168Z,49.26
2022-08-19T06:52:09.354Z,48.65
2022-08-19T06:55:17.063Z,48.07
2022-08-19T06:58:21.667Z,47.49
2022-08-19T07:01:24.766Z,47.71
2022-08-19T07:04:32.704Z,46.67
2022-08-19T07:07:36.939Z,46.45
2022-08-19T07:10:44.356Z,46.19
2022-08-19T07:13:49.563Z,46.37
2022-08-19T07:16:58.015Z,45.64
2022-08-19T07:20:04.994Z,45.47
2022-08-19T07:23:15.957Z,45.65
2022-08-19T07:26:28.021Z,45.41
2022-08-19T07:29:34.012Z,45.29
2022-08-19T07:32:38.489Z,44.98
2022-08-19T07:35:41.886Z,44.03
2022-08-19T07:38:48.433Z,44.23
2022-08-19T07:41:51.690Z,44.18
2022-08-19T07:44:54.729Z,43.68
2022-08-19T07:47:57.352Z,43.17
2022-08-19T07:51:03.072Z,43.49
2022-08-19T07:54:05.813Z,43.02
2022-08-19T07:57:09.510Z,42.36
2022-08-19T08:00:13.503Z,42.63
2022-08-19T08:03:20.152Z,42.35
2022-08-19T08:06:41.982Z,41.94
2022-08-19T08:09:49.654Z,41.65
2022-08-19T08:13:10.265Z,41.19
2022-08-19T08:16:14.533Z,40.85
2022-08-19T08:19:25.414Z,40.33
2022-08-19T08:22:47.433Z,40.10
2022-08-19T08:25:50.593Z,39.78
2022-08-19T08:28:54.559Z,39.66
2022-08-19T08:31:59.802Z,39.32
2022-08-19T08:35:04.991Z,38.65
2022-08-19T08:38:07.658Z,37.89
2022-08-19T08:41:23.562Z,38.04
2022-08-19T08:45:11.865Z,37.32
2022-08-19T08:48:24.327Z,36.81
2022-08-19T08:51:35.288Z,35.75
2022-08-19T08:54:48.946Z,35.89
2022-08-19T08:58:15.051Z,34.85
2022-08-19T09:01:18.299Z,34.99
2022-08-19T09:04:21.200Z,34.85
2022-08-19T09:08:01.594Z,33.41
2022-08-19T09:11:10.035Z,33.88
2022-08-19T09:14:49.831Z,33.13
2022-08-19T09:17:53.855Z,33.21
2022-08-19T09:20:57.829Z,31.87
2022-08-19T09:24:00.914Z,31.52
2022-08-19T09:27:18.585Z,31.89
2022-08-19T09:30:25.334Z,31.01
2022-08-19T09:33:28.283Z,31.64
2022-08-19T09:36:35.383Z,30.28
2022-08-19T09:39:39.602Z,30.43
2022-08-19T09:42:49.573Z,29.81
2022-08-19T09:45:53.756Z,29.86
2022-08-19T09:49:06.178Z,29.87
2022-08-19T09:52:11.490Z,29.64
2022-08-19T09:55:17.219Z,29.32
2022-08-19T09:58:26.043Z,29.27
2022-08-19T10:01:31.290Z,28.24
2022-08-19T10:04:52.892Z,28.26
2022-08-19T10:07:56.795Z,27.24
2022-08-19T10:11:27.183Z,27.69
2022-08-19T10:14:24.384Z,27.22
2022-08-19T10:17:31.721Z,27.59
2022-08-19T10:20:39.196Z,26.90
2022-08-19T10:23:46.184Z,26.60
2022-08-19T10:26:57.381Z,26.85
2022-08-19T10:30:02.475Z,25.93
2022-08-19T10:33:11.235Z,26.17
2022-08-19T10:36:18.949Z,25.76
2022-08-19T10:39:22.827Z,25.59
2022-08-19T10:42:26.584Z,25.14
2022-08-19T10:45:29.185Z,25.94
2022-08-19T10:48:37.797Z,25.23
2022-08-19T10:52:01.269Z,25.42
2022-08-19T10:55:25.717Z,25.26
2022-08-19T10:58:32.200Z,24.83
2022-08-19T11:01:35.713Z,25.09
2022-08-19T11:04:40.731Z,24.72
2022-08-19T11:07:45.734Z,24.82
2022-08-19T11:10:50.404Z,24.55
2022-08-19T11:13:54.072Z,24.32
2022-08-19T11:16:58.019Z,24.62
2022-08-19T11:20:04.630Z,24.16
2022-08-19T11:23:07.488Z,23.96
2022-08-19T11:26:10.917Z,23.75
2022-08-19T11:29:14.765Z,24.29
2022-08-19T11:32:17.737Z,24.00
2022-08-19T11:35:21.074Z,23.72
2022-08-19T11:38:24.097Z,23.25
2022-08-19T11:41:27.514Z,23.26
2022-08-19T11:44:31.454Z,23.21
2022-08-19T11:47:34.117Z,22.95
2022-08-19T11:50:37.346Z,22.96
2022-08-19T11:53:40.195Z,22.66
2022-08-19T11:56:43.619Z,22.86
2022-08-19T11:59:52.252Z,22.64
2022-08-19T12:02:55.832Z,23.00
2022-08-19T12:05:58.779Z,22.92
2022-08-19T12:09:06.572Z,22.95
2022-08-19T12:12:10.268Z,22.91
2022-08-19T12:15:15.275Z,22.49
2022-08-19T12:18:18.276Z,22.46
2022-08-19T12:21:26.118Z,22.47
2022-08-19T12:24:32.637Z,22.67
2022-08-19T12:27:40.220Z,22.55
2022-08-19T12:30:45.328Z,22.58
2022-08-19T12:33:48.574Z,22.73
2022-08-19T12:36:51.480Z,22.46
2022-08-19T12:39:54.290Z,22.73
2022-08-19T12:42:57.331Z,22.41
2022-08-19T12:46:00.136Z,21.60
2022-08-19T12:49:05.155Z,21.92
2022-08-19T12:52:22.978Z,21.58
2022-08-19T12:55:29.131Z,21.60
2022-08-19T12:58:32.244Z,21.75
2022-08-19T13:01:35.413Z,21.79
2022-08-19T13:04:41.597Z,21.88
2022-08-19T13:07:44.975Z,21.99
2022-08-19T13:10:47.805Z,21.90
2022-08-19T13:13:52.252Z,21.67
2022-08-19T13:16:54.919Z,21.51
2022-08-19T13:19:58.157Z,21.27
2022-08-19T13:23:00.891Z,21.38
2022-08-19T13:26:07.445Z,21.00
2022-08-19T13:29:28.596Z,20.78
2022-08-19T13:32:50.211Z,21.05
2022-08-19T13:36:01.395Z,20.94
2022-08-19T13:39:05.689Z,21.21
2022-08-19T13:42:09.435Z,21.14
2022-08-19T13:45:12.756Z,20.95
2022-08-19T13:48:16.528Z,21.19
2022-08-19T13:51:19.871Z,21.69
2022-08-19T13:54:22.751Z,21.53
2022-08-19T13:57:25.752Z,21.87
2022-08-19T14:00:34.575Z,22.02
2022-08-19T14:03:38.467Z,21.51
2022-08-19T14:06:41.169Z,21.54
2022-08-19T14:09:44.265Z,21.29
2022-08-19T14:12:49.403Z,21.45
2022-08-19T14:15:53.191Z,21.39
2022-08-19T14:18:56.117Z,21.39
2022-08-19T14:21:59.049Z,21.33
2022-08-19T14:25:02.185Z,21.30
2022-08-19T14:28:05.528Z,21.57
2022-08-19T14:31:09.237Z,21.90
2022-08-19T14:34:13.691Z,22.59
2022-08-19T14:37:16.308Z,22.45
2022-08-19T14:40:22.182Z,22.92
2022-08-19T14:43:24.788Z,23.92
2022-08-19T14:46:29.767Z,25.83
2022-08-19T14:49:35.285Z,26.45
2022-08-19T14:52:48.831Z,26.97
2022-08-19T14:55:51.596Z,27.12
2022-08-19T14:59:00.363Z,27.03
2022-08-19T15:02:33.619Z,26.66
2022-08-19T15:05:28.016Z,26.29
2022-08-19T15:08:32.315Z,26.70
2022-08-19T15:11:35.459Z,27.31
2022-08-19T15:14:38.733Z,27.46
2022-08-19T15:17:46.665Z,27.26
2022-08-19T15:20:50.610Z,27.34
2022-08-19T15:23:56.870Z,27.91
2022-08-19T15:26:59.963Z,27.94
2022-08-19T15:30:03.987Z,27.89
2022-08-19T15:33:07.618Z,28.00
2022-08-19T15:36:12.228Z,28.10
2022-08-19T15:39:19.902Z,28.01
2022-08-19T15:42:29.598Z,28.28
2022-08-19T15:45:33.095Z,28.14
2022-08-19T15:48:37.503Z,28.23
2022-08-19T15:51:43.039Z,27.94
2022-08-19T15:54:45.948Z,27.99
2022-08-19T15:58:07.180Z,28.14
2022-08-19T16:01:35.427Z,28.21
2022-08-19T16:05:02.028Z,28.30
2022-08-19T16:08:05.271Z,28.74
2022-08-19T16:11:08.208Z,28.50
2022-08-19T16:14:10.995Z,29.20
2022-08-19T16:17:14.184Z,29.38
2022-08-19T16:20:16.997Z,29.75
2022-08-19T16:23:20.247Z,30.07
2022-08-19T16:26:23.344Z,30.18
2022-08-19T16:29:34.719Z,30.58
2022-08-19T16:32:45.238Z,30.50
2022-08-19T16:35:52.014Z,30.52
2022-08-19T16:39:12.242Z,30.76
2022-08-19T16:42:15.686Z,30.74
2022-08-19T16:45:19.544Z,30.87
2022-08-19T16:48:30.364Z,31.05
2022-08-19T16:51:36.398Z,31.30
2022-08-19T16:54:39.476Z,31.54
2022-08-19T16:57:42.271Z,31.78
2022-08-19T17:00:46.738Z,31.66
2022-08-19T17:03:52.042Z,31.90
2022-08-19T17:06:55.072Z,31.82
2022-08-19T17:09:57.881Z,32.21
2022-08-19T17:13:01.523Z,32.54
2022-08-19T17:16:05.815Z,32.62
2022-08-19T17:19:08.872Z,32.83
2022-08-19T17:22:13.071Z,32.58
2022-08-19T17:25:16.060Z,32.80
2022-08-19T17:28:22.549Z,32.83
2022-08-19T17:31:28.449Z,32.93
2022-08-19T17:34:31.051Z,33.17
2022-08-19T17:37:36.705Z,33.25
2022-08-19T17:40:42.457Z,33.08
2022-08-19T17:43:45.752Z,33.34
2022-08-19T17:46:48.419Z,33.58
2022-08-19T17:49:52.177Z,33.41
2022-08-19T17:52:55.722Z,33.50
2022-08-19T17:55:59.828Z,33.61
2022-08-19T17:59:02.495Z,33.79
2022-08-19T18:02:10.212Z,33.85
2022-08-19T18:05:14.168Z,33.94
2022-08-19T18:08:17.337Z,34.03
2022-08-19T18:11:20.676Z,34.59
2022-08-19T18:14:32.159Z,34.36
2022-08-19T18:40:08.517Z,52.52
2022-08-19T18:43:23.797Z,58.42
2022-08-19T18:46:44.960Z,61.09
2022-08-19T18:49:51.186Z,65.09
2022-08-19T18:52:53.812Z,62.52
2022-08-19T18:55:57.627Z,62.54
2022-08-19T18:59:01.510Z,62.74
2022-08-19T19:02:05.508Z,63.28
2022-08-19T19:05:08.204Z,63.77
2022-08-19T19:08:13.356Z,64.86
2022-08-19T19:11:32.574Z,65.27
2022-08-19T19:14:49.003Z,64.93
2022-08-19T19:17:52.412Z,67.13
2022-08-19T19:20:56.371Z,66.25
2022-08-19T19:37:14.728Z,68.32
2022-08-19T19:40:22.343Z,64.42
2022-08-19T19:43:25.081Z,66.56
2022-08-19T19:46:28.609Z,64.96
2022-08-19T19:49:32.303Z,66.23
2022-08-19T19:52:35.331Z,67.30
2022-08-19T19:55:37.965Z,70.00
2022-08-19T19:58:41.708Z,68.39
2022-08-19T20:01:47.001Z,68.27
2022-08-19T20:04:51.217Z,73.14
2022-08-19T20:08:13.422Z,70.38
2022-08-19T20:11:55.092Z,70.20
2022-08-19T20:14:57.748Z,72.32
2022-08-19T20:18:04.648Z,72.04
2022-08-19T20:21:07.345Z,72.85
2022-08-19T20:24:23.754Z,71.43
2022-08-19T20:27:26.370Z,71.08
2022-08-19T20:30:33.409Z,72.03
2022-08-19T20:33:36.296Z,72.59
2022-08-19T20:36:39.216Z,71.88
2022-08-19T20:39:45.227Z,72.16
2022-08-19T20:42:48.321Z,72.16
2022-08-19T20:45:51.261Z,71.27
2022-08-19T20:48:54.301Z,70.40
2022-08-19T20:51:57.099Z,70.05
2022-08-19T20:55:01.657Z,71.42
2022-08-19T20:58:04.556Z,71.50
2022-08-19T21:01:10.589Z,71.02
2022-08-19T21:04:13.420Z,72.51
2022-08-19T21:07:16.848Z,73.24
2022-08-19T21:10:19.576Z,72.47
2022-08-19T21:13:23.953Z,73.08
2022-08-19T21:16:26.693Z,73.52
2022-08-19T21:19:29.647Z,71.35
2022-08-19T21:22:32.338Z,72.84
2022-08-19T21:25:35.316Z,74.57
2022-08-19T21:28:38.487Z,75.28
2022-08-19T21:31:41.780Z,74.53
2022-08-19T21:34:46.950Z,72.20
2022-08-19T21:37:53.187Z,71.43
2022-08-19T21:40:56.509Z,72.05
2022-08-19T21:43:59.743Z,71.21
2022-08-19T21:47:04.589Z,69.91
2022-08-19T21:50:08.409Z,71.45
2022-08-19T21:53:14.005Z,73.29
2022-08-19T21:56:20.604Z,74.17
2022-08-19T21:59:23.673Z,73.87
2022-08-19T22:02:28.337Z,72.12
2022-08-19T22:05:33.295Z,70.14
2022-08-19T22:08:36.531Z,73.12
2022-08-19T22:11:39.931Z,73.33
2022-08-19T22:14:42.572Z,74.22
2022-08-19T22:17:45.515Z,74.87
2022-08-19T22:20:48.629Z,75.09
2022-08-19T22:23:51.534Z,74.30
2022-08-19T22:26:54.212Z,74.69
2022-08-19T22:29:57.101Z,74.55
2022-08-19T22:33:01.396Z,74.46
2022-08-19T22:36:07.731Z,75.13
2022-08-19T22:39:10.345Z,75.00
2022-08-19T22:42:13.764Z,74.60
2022-08-19T22:45:17.672Z,74.69
2022-08-19T22:48:24.318Z,75.83
2022-08-19T22:51:45.525Z,73.77
2022-08-19T22:54:56.844Z,74.35
2022-08-19T22:57:59.508Z,74.87
2022-08-19T23:01:03.462Z,73.10
2022-08-19T23:04:06.097Z,72.06
2022-08-19T23:07:09.385Z,71.27
2022-08-19T23:10:12.552Z,69.10
2022-08-19T23:13:17.339Z,68.24
2022-08-19T23:16:20.016Z,66.95
2022-08-19T23:19:23.878Z,68.44
2022-08-19T23:22:26.616Z,69.61
2022-08-19T23:25:32.347Z,68.65
2022-08-19T23:28:53.719Z,69.91
2022-08-19T23:31:56.604Z,67.99
2022-08-19T23:34:59.765Z,67.13
2022-08-19T23:38:05.182Z,67.99
2022-08-19T23:41:09.722Z,70.73
2022-08-19T23:44:14.819Z,70.57
2022-08-19T23:47:17.742Z,70.81
2022-08-19T23:50:24.004Z,72.79
2022-08-19T23:53:27.571Z,68.23
2022-08-19T23:56:30.479Z,70.31
2022-08-19T23:59:33.333Z,73.49
